createdAt,value
2018-03-26T00:00:48.818Z,59.34
2018-03-26T00:03:16.318Z,59.32
2018-03-26T00:05:43.829Z,59.60
2018-03-26T00:08:11.439Z,60.57
2018-03-26T00:10:38.927Z,60.58
2018-03-26T00:13:06.415Z,60.77
2018-03-26T00:15:33.955Z,60.83
2018-03-26T00:18:01.434Z,60.87
2018-03-26T00:20:28.888Z,60.90
2018-03-26T00:22:56.342Z,61.08
2018-03-26T00:25:23.818Z,61.08
2018-03-26T00:27:51.302Z,61.43
2018-03-26T00:30:18.864Z,61.71
2018-03-26T00:32:46.358Z,61.58
2018-03-26T00:35:13.937Z,61.54
2018-03-26T00:37:41.395Z,61.90
2018-03-26T00:40:08.879Z,61.75
2018-03-26T00:42:36.349Z,61.91
2018-03-26T00:45:03.911Z,61.97
2018-03-26T00:47:31.378Z,62.06
2018-03-26T00:49:58.833Z,61.99
2018-03-26T00:52:26.311Z,61.99
2018-03-26T00:54:53.770Z,62.51
2018-03-26T00:57:21.355Z,62.37
2018-03-26T00:59:48.831Z,62.32
2018-03-26T01:02:16.286Z,62.14
2018-03-26T01:04:43.753Z,62.18
2018-03-26T01:07:11.506Z,62.49
2018-03-26T01:09:38.997Z,63.04
2018-03-26T01:12:06.550Z,62.97
2018-03-26T01:14:34.025Z,62.50
2018-03-26T01:17:01.479Z,62.60
2018-03-26T01:19:29.022Z,63.10
2018-03-26T01:21:56.583Z,62.92
2018-03-26T01:24:24.049Z,62.85
2018-03-26T01:26:51.601Z,63.21
2018-03-26T01:29:19.169Z,62.96
2018-03-26T01:31:46.623Z,62.83
2018-03-26T01:34:14.169Z,62.90
2018-03-26T01:36:41.623Z,63.21
2018-03-26T01:39:09.082Z,63.29
2018-03-26T01:41:36.559Z,63.37
2018-03-26T01:44:04.013Z,63.45
2018-03-26T01:46:31.471Z,63.41
2018-03-26T01:48:58.970Z,63.56
2018-03-26T01:51:26.518Z,63.59
2018-03-26T01:53:53.987Z,63.41
2018-03-26T01:56:21.505Z,63.66
2018-03-26T01:58:49.002Z,63.32
2018-03-26T02:01:16.463Z,63.28
2018-03-26T02:03:44.002Z,63.44
2018-03-26T02:06:11.458Z,63.50
2018-03-26T02:08:38.927Z,63.37
2018-03-26T02:11:06.414Z,63.38
2018-03-26T02:13:33.877Z,63.46
2018-03-26T02:16:01.350Z,63.73
2018-03-26T02:18:28.866Z,63.92
2018-03-26T02:20:56.423Z,64.22
2018-03-26T02:23:23.882Z,64.56
2018-03-26T02:25:51.362Z,64.42
2018-03-26T02:28:18.857Z,64.35
2018-03-26T02:30:46.309Z,64.26
2018-03-26T02:33:13.802Z,63.90
2018-03-26T02:35:41.271Z,63.71
2018-03-26T02:38:08.728Z,64.58
2018-03-26T02:40:36.213Z,64.57
2018-03-26T02:43:03.683Z,63.95
2018-03-26T02:45:31.142Z,64.34
2018-03-26T02:47:58.614Z,64.53
2018-03-26T02:50:26.076Z,64.48
2018-03-26T02:52:53.558Z,64.44
2018-03-26T02:55:21.025Z,64.23
2018-03-26T02:57:48.482Z,64.34
2018-03-26T03:00:15.985Z,64.47
2018-03-26T03:02:43.462Z,64.40
2018-03-26T03:05:10.926Z,64.79
2018-03-26T03:07:38.467Z,65.06
2018-03-26T03:10:05.922Z,64.63
2018-03-26T03:12:33.382Z,64.45
2018-03-26T03:15:00.861Z,64.83
2018-03-26T03:17:28.402Z,64.53
2018-03-26T03:19:55.901Z,64.56
2018-03-26T03:22:23.462Z,64.52
2018-03-26T03:24:50.966Z,64.71
2018-03-26T03:27:18.421Z,64.46
2018-03-26T03:29:45.915Z,64.54
2018-03-26T03:32:13.369Z,64.49
2018-03-26T03:34:40.830Z,64.78
2018-03-26T03:37:08.357Z,64.79
2018-03-26T03:39:35.971Z,65.05
2018-03-26T03:42:03.430Z,65.05
2018-03-26T03:44:30.957Z,65.53
2018-03-26T03:46:58.412Z,65.25
2018-03-26T03:49:25.957Z,65.57
2018-03-26T03:51:53.446Z,65.23
2018-03-26T03:54:20.916Z,64.90
2018-03-26T03:56:48.426Z,64.75
2018-03-26T03:59:15.911Z,64.69
2018-03-26T04:01:43.394Z,64.76
2018-03-26T04:04:10.852Z,64.80
2018-03-26T04:06:38.329Z,65.10
2018-03-26T04:09:05.801Z,64.59
2018-03-26T04:11:33.266Z,64.56
2018-03-26T04:14:00.736Z,64.34
2018-03-26T04:16:28.210Z,64.28
2018-03-26T04:18:55.695Z,64.19
2018-03-26T04:21:23.159Z,64.38
2018-03-26T04:23:50.661Z,64.63
2018-03-26T04:26:18.147Z,64.76
2018-03-26T04:28:45.683Z,64.81
2018-03-26T04:31:13.147Z,64.62
2018-03-26T04:33:40.691Z,64.87
2018-03-26T04:36:08.146Z,64.73
2018-03-26T04:38:35.710Z,64.77
2018-03-26T04:41:03.203Z,65.43
2018-03-26T04:43:30.730Z,65.43
2018-03-26T04:45:58.191Z,65.46
2018-03-26T04:48:25.679Z,65.31
2018-03-26T04:50:53.139Z,64.96
2018-03-26T04:53:20.596Z,64.76
2018-03-26T04:55:48.083Z,64.63
2018-03-26T04:58:15.619Z,64.89
2018-03-26T05:00:43.083Z,64.73
2018-03-26T05:03:10.547Z,65.21
2018-03-26T05:05:38.036Z,65.24
2018-03-26T05:08:05.494Z,65.21
2018-03-26T05:10:32.957Z,65.08
2018-03-26T05:13:00.446Z,64.98
2018-03-26T05:15:27.909Z,64.96
2018-03-26T05:17:55.378Z,65.10
2018-03-26T05:20:22.863Z,65.43
2018-03-26T05:22:50.330Z,64.94
2018-03-26T05:25:17.785Z,65.11
2018-03-26T05:27:45.286Z,65.30
2018-03-26T05:30:12.823Z,65.40
2018-03-26T05:32:40.286Z,65.70
2018-03-26T05:35:07.767Z,65.91
2018-03-26T05:37:35.226Z,66.44
2018-03-26T05:40:02.757Z,65.62
2018-03-26T05:42:30.242Z,66.39
2018-03-26T05:44:57.694Z,65.95
2018-03-26T05:47:25.161Z,65.84
2018-03-26T05:49:52.637Z,65.88
2018-03-26T05:52:20.092Z,65.97
2018-03-26T05:54:47.551Z,66.08
2018-03-26T05:57:15.202Z,65.74
2018-03-26T05:59:42.666Z,66.11
2018-03-26T06:02:10.157Z,66.54
2018-03-26T06:04:37.627Z,66.63
2018-03-26T06:07:05.133Z,66.72
2018-03-26T06:09:32.660Z,66.84
2018-03-26T06:12:00.174Z,66.81
2018-03-26T06:14:27.662Z,66.63
2018-03-26T06:17:07.102Z,66.49
2018-03-26T06:19:34.653Z,66.47
2018-03-26T06:22:02.224Z,66.44
2018-03-26T06:24:29.741Z,66.60
2018-03-26T06:26:57.206Z,66.62
2018-03-26T06:29:24.663Z,66.85
2018-03-26T06:31:52.142Z,67.06
2018-03-26T06:34:19.653Z,66.84
2018-03-26T06:39:56.717Z,66.29
2018-03-26T06:42:24.206Z,65.83
2018-03-26T06:44:51.734Z,66.12
2018-03-26T06:47:19.206Z,65.89
2018-03-26T06:49:46.766Z,65.70
2018-03-26T06:52:14.234Z,65.66
2018-03-26T06:54:41.753Z,65.86
2018-03-26T06:57:09.226Z,65.84
2018-03-26T06:59:36.691Z,65.53
2018-03-26T07:02:04.154Z,65.53
2018-03-26T07:04:31.651Z,65.13
2018-03-26T07:06:59.106Z,64.48
2018-03-26T07:09:26.610Z,64.42
2018-03-26T07:11:54.109Z,63.56
2018-03-26T07:14:21.633Z,63.46
2018-03-26T07:16:49.188Z,63.40
2018-03-26T07:19:16.666Z,63.00
2018-03-26T07:21:44.226Z,62.62
2018-03-26T07:24:11.678Z,62.39
2018-03-26T07:26:39.178Z,61.64
2018-03-26T07:29:06.643Z,61.38
2018-03-26T07:31:34.102Z,61.49
2018-03-26T07:34:01.594Z,61.04
2018-03-26T07:36:29.154Z,61.28
2018-03-26T07:38:56.618Z,61.45
2018-03-26T07:41:24.135Z,61.66
2018-03-26T07:43:51.590Z,61.69
2018-03-26T07:46:19.056Z,61.64
2018-03-26T07:48:46.661Z,61.60
2018-03-26T07:51:14.114Z,61.79
2018-03-26T07:53:41.570Z,61.64
2018-03-26T07:56:09.036Z,61.79
2018-03-26T07:58:36.495Z,62.20
2018-03-26T08:01:04.028Z,61.93
2018-03-26T08:03:31.495Z,61.79
2018-03-26T08:05:59.069Z,61.73
2018-03-26T08:08:26.606Z,61.65
2018-03-26T08:10:54.063Z,61.89
2018-03-26T08:13:21.539Z,61.80
2018-03-26T08:15:49.078Z,61.64
2018-03-26T08:18:16.594Z,61.65
2018-03-26T08:20:44.058Z,61.68
2018-03-26T08:23:11.539Z,61.74
2018-03-26T08:25:39.026Z,62.08
2018-03-26T08:28:06.515Z,61.98
2018-03-26T08:30:34.026Z,62.51
2018-03-26T08:33:01.724Z,62.49
2018-03-26T08:35:29.265Z,62.22
2018-03-26T08:37:56.770Z,62.15
2018-03-26T08:40:24.276Z,62.20
2018-03-26T08:42:51.757Z,61.99
2018-03-26T08:45:19.250Z,62.29
2018-03-26T08:47:46.723Z,61.64
2018-03-26T08:50:14.238Z,61.66
2018-03-26T08:52:41.755Z,61.78
2018-03-26T08:55:09.226Z,61.97
2018-03-26T08:57:36.718Z,62.25
2018-03-26T09:00:04.370Z,61.78
2018-03-26T09:02:31.892Z,61.27
2018-03-26T09:04:59.354Z,61.48
2018-03-26T09:07:26.843Z,62.01
2018-03-26T09:09:54.301Z,61.91
2018-03-26T09:12:21.826Z,61.31
2018-03-26T09:14:49.316Z,61.84
2018-03-26T09:17:16.793Z,61.69
2018-03-26T09:19:44.262Z,61.21
2018-03-26T09:22:11.762Z,60.54
2018-03-26T09:24:39.222Z,60.84
2018-03-26T09:27:06.685Z,60.59
2018-03-26T09:29:34.167Z,60.93
2018-03-26T09:32:01.634Z,61.16
2018-03-26T09:34:29.104Z,61.71
2018-03-26T09:36:56.691Z,61.54
2018-03-26T09:39:24.157Z,61.50
2018-03-26T09:41:51.703Z,62.22
2018-03-26T09:44:19.266Z,62.64
2018-03-26T09:46:46.726Z,62.41
2018-03-26T09:49:14.286Z,62.56
2018-03-26T09:51:41.766Z,62.92
2018-03-26T09:54:09.234Z,62.77
2018-03-26T09:56:36.691Z,62.23
2018-03-26T09:59:04.165Z,62.50
2018-03-26T10:01:32.389Z,62.58
2018-03-26T10:03:59.842Z,62.90
2018-03-26T10:06:27.381Z,63.23
2018-03-26T10:08:54.858Z,62.98
2018-03-26T10:11:22.317Z,62.41
2018-03-26T10:13:49.802Z,62.16
2018-03-26T10:16:17.378Z,62.55
2018-03-26T10:18:44.919Z,62.41
2018-03-26T10:21:12.452Z,62.59
2018-03-26T10:23:39.966Z,63.44
2018-03-26T10:26:07.480Z,64.64
2018-03-26T10:28:34.969Z,65.56
2018-03-26T10:31:02.430Z,65.01
2018-03-26T10:33:29.903Z,65.45
2018-03-26T10:35:57.399Z,65.51
2018-03-26T10:38:24.874Z,65.91
2018-03-26T10:40:52.326Z,66.37
2018-03-26T10:43:19.906Z,66.26
2018-03-26T10:45:47.377Z,66.11
2018-03-26T10:48:14.835Z,66.56
2018-03-26T10:50:42.335Z,67.28
2018-03-26T10:53:09.797Z,67.96
2018-03-26T10:55:37.266Z,68.62
2018-03-26T10:58:04.742Z,68.68
2018-03-26T11:00:32.237Z,68.43
2018-03-26T11:02:59.740Z,68.54
2018-03-26T11:05:27.247Z,68.97
2018-03-26T11:07:54.755Z,69.51
2018-03-26T11:10:22.217Z,70.17
2018-03-26T11:12:49.717Z,70.46
2018-03-26T11:15:17.212Z,70.64
2018-03-26T11:17:44.666Z,71.41
2018-03-26T11:20:12.149Z,71.60
2018-03-26T11:22:40.342Z,71.80
2018-03-26T11:25:07.823Z,72.94
2018-03-26T11:27:35.339Z,73.07
2018-03-26T11:30:02.814Z,73.55
2018-03-26T11:32:30.330Z,74.62
2018-03-26T11:34:57.804Z,74.77
2018-03-26T11:37:25.258Z,75.50
2018-03-26T11:39:52.761Z,75.79
2018-03-26T11:42:20.226Z,75.88
2018-03-26T11:44:47.839Z,76.66
2018-03-26T11:47:15.322Z,76.98
2018-03-26T11:49:42.799Z,76.80
2018-03-26T11:52:10.241Z,76.77
2018-03-26T11:54:39.305Z,77.08
2018-03-26T11:57:06.786Z,77.60
2018-03-26T11:59:34.274Z,77.80
2018-03-26T12:02:01.827Z,78.17
2018-03-26T12:04:29.346Z,78.27
2018-03-26T12:06:56.842Z,78.27
2018-03-26T12:09:24.367Z,77.89
2018-03-26T12:11:51.849Z,78.40
2018-03-26T12:14:19.312Z,78.88
2018-03-26T12:16:46.781Z,79.29
2018-03-26T12:19:14.323Z,78.94
2018-03-26T12:21:41.782Z,79.15
2018-03-26T12:24:20.960Z,78.74
2018-03-26T12:26:48.414Z,78.38
2018-03-26T12:29:27.903Z,78.10
2018-03-26T12:31:55.389Z,78.58
2018-03-26T12:34:34.695Z,78.80
2018-03-26T12:37:02.163Z,78.74
2018-03-26T12:39:29.636Z,78.80
2018-03-26T12:41:57.176Z,79.26
2018-03-26T12:44:36.506Z,79.75
2018-03-26T12:47:04.024Z,79.92
2018-03-26T12:49:31.482Z,79.46
2018-03-26T12:52:10.811Z,78.86
2018-03-26T12:54:38.284Z,77.85
2018-03-26T13:00:08.673Z,77.03
2018-03-26T13:02:36.086Z,76.28
2018-03-26T13:05:03.547Z,76.31
2018-03-26T13:07:31.016Z,76.10
2018-03-26T13:09:58.570Z,74.73
2018-03-26T13:12:26.035Z,74.47
2018-03-26T13:14:53.501Z,73.84
2018-03-26T13:17:21.035Z,73.21
2018-03-26T13:19:48.504Z,73.75
2018-03-26T13:22:15.967Z,73.28
2018-03-26T13:24:43.434Z,73.22
2018-03-26T13:27:10.968Z,72.52
2018-03-26T13:29:38.460Z,71.80
2018-03-26T13:32:06.038Z,71.45
2018-03-26T13:34:33.500Z,71.16
2018-03-26T13:37:00.998Z,71.16
2018-03-26T13:39:28.468Z,71.51
2018-03-26T13:41:56.091Z,71.52
2018-03-26T13:44:23.509Z,70.96
2018-03-26T13:46:51.042Z,70.81
2018-03-26T13:49:18.526Z,70.75
2018-03-26T13:51:46.139Z,71.45
2018-03-26T13:54:13.619Z,71.34
2018-03-26T13:56:41.132Z,71.37
2018-03-26T13:59:08.586Z,71.68
2018-03-26T14:01:36.054Z,72.09
2018-03-26T14:04:03.537Z,71.80
2018-03-26T14:06:31.023Z,72.03
2018-03-26T14:09:10.201Z,71.93
2018-03-26T14:11:49.485Z,70.44
2018-03-26T14:14:28.946Z,69.79
2018-03-26T14:19:59.222Z,68.09
2018-03-26T14:22:26.673Z,68.32
2018-03-26T14:24:54.223Z,68.00
2018-03-26T14:27:21.832Z,67.45
2018-03-26T14:29:49.290Z,66.57
2018-03-26T14:32:16.759Z,64.99
2018-03-26T14:34:56.086Z,64.87
2018-03-26T14:37:23.554Z,63.40
2018-03-26T14:39:51.119Z,61.95
2018-03-26T14:42:18.611Z,60.36
2018-03-26T14:44:46.073Z,60.40
2018-03-26T14:47:13.548Z,61.09
2018-03-26T14:49:41.038Z,62.04
2018-03-26T14:52:08.541Z,63.08
2018-03-26T14:54:36.008Z,63.48
2018-03-26T14:57:03.623Z,61.95
2018-03-26T14:59:31.119Z,62.55
2018-03-26T15:01:58.605Z,63.06
2018-03-26T15:04:26.117Z,63.12
2018-03-26T15:06:53.578Z,62.13
2018-03-26T15:09:21.069Z,61.20
2018-03-26T15:11:48.622Z,61.00
2018-03-26T15:14:16.078Z,61.26
2018-03-26T15:16:43.625Z,61.71
2018-03-26T15:19:11.135Z,62.91
2018-03-26T15:21:38.737Z,61.50
2018-03-26T15:24:06.282Z,61.25
2018-03-26T15:26:33.830Z,61.10
2018-03-26T15:29:01.291Z,60.19
2018-03-26T15:31:28.839Z,60.35
2018-03-26T15:33:56.341Z,60.62
2018-03-26T15:36:23.868Z,60.56
2018-03-26T15:38:51.380Z,60.63
2018-03-26T15:41:18.843Z,59.75
2018-03-26T15:43:46.338Z,59.69
2018-03-26T15:46:13.846Z,59.14
2018-03-26T15:48:41.306Z,59.09
2018-03-26T15:51:08.985Z,57.44
2018-03-26T15:53:36.581Z,57.78
2018-03-26T15:56:04.039Z,57.95
2018-03-26T15:58:31.493Z,57.74
2018-03-26T16:00:58.971Z,57.80
2018-03-26T16:03:28.226Z,57.71
2018-03-26T16:05:55.726Z,57.02
2018-03-26T16:08:23.206Z,53.84
2018-03-26T16:10:50.674Z,50.05
2018-03-26T16:13:18.199Z,49.42
2018-03-26T16:15:45.666Z,48.12
2018-03-26T16:18:13.174Z,47.61
2018-03-26T16:20:40.673Z,47.64
2018-03-26T16:23:08.130Z,47.44
2018-03-26T16:25:35.595Z,47.59
2018-03-26T16:28:03.102Z,48.83
2018-03-26T16:30:30.661Z,51.00
2018-03-26T16:32:58.134Z,52.84
2018-03-26T16:35:25.679Z,53.67
2018-03-26T16:37:53.179Z,55.27
2018-03-26T16:40:20.649Z,57.42
2018-03-26T16:42:48.152Z,59.49
2018-03-26T16:45:15.660Z,60.64
2018-03-26T16:47:43.098Z,61.72
2018-03-26T16:50:10.669Z,61.89
2018-03-26T16:52:38.129Z,62.57
2018-03-26T16:55:05.582Z,62.97
2018-03-26T16:57:33.146Z,63.32
2018-03-26T17:00:00.602Z,64.11
2018-03-26T17:02:28.069Z,65.06
2018-03-26T17:04:55.599Z,65.45
2018-03-26T17:07:23.059Z,65.68
2018-03-26T17:09:50.510Z,66.51
2018-03-26T17:12:18.042Z,66.41
2018-03-26T17:14:45.509Z,66.96
2018-03-26T17:17:12.970Z,67.15
2018-03-26T17:19:40.454Z,67.31
2018-03-26T17:22:08.086Z,67.37
2018-03-26T17:24:35.486Z,66.79
2018-03-26T17:27:02.983Z,66.72
2018-03-26T17:29:30.438Z,66.82
2018-03-26T17:31:57.975Z,66.61
2018-03-26T17:34:25.450Z,67.10
2018-03-26T17:36:52.916Z,67.63
2018-03-26T17:39:20.366Z,68.22
2018-03-26T17:41:47.868Z,68.42
2018-03-26T17:44:15.313Z,68.65
2018-03-26T17:46:42.778Z,68.96
2018-03-26T17:49:10.259Z,69.94
2018-03-26T17:51:37.718Z,70.11
2018-03-26T17:54:05.187Z,70.71
2018-03-26T17:56:32.674Z,71.17
2018-03-26T17:59:00.875Z,71.62
2018-03-26T18:01:28.332Z,72.08
2018-03-26T18:03:55.817Z,72.38
2018-03-26T18:06:23.275Z,72.15
2018-03-26T18:08:50.734Z,72.58
2018-03-26T18:11:18.231Z,72.97
2018-03-26T18:13:45.803Z,73.20
2018-03-26T18:16:13.262Z,73.47
2018-03-26T18:18:40.769Z,73.74
2018-03-26T18:21:08.250Z,73.93
2018-03-26T18:23:35.720Z,73.73
2018-03-26T18:26:03.227Z,73.53
2018-03-26T18:28:30.732Z,73.44
2018-03-26T18:30:58.201Z,73.24
2018-03-26T18:33:25.683Z,73.08
2018-03-26T18:35:53.220Z,73.49
2018-03-26T18:38:20.695Z,73.58
2018-03-26T18:40:48.202Z,73.74
2018-03-26T18:43:15.687Z,74.04
2018-03-26T18:45:43.170Z,74.29
2018-03-26T18:48:10.679Z,74.52
2018-03-26T18:50:38.143Z,74.27
2018-03-26T18:53:05.617Z,74.36
2018-03-26T18:55:33.074Z,74.26
2018-03-26T18:58:00.558Z,74.30
2018-03-26T19:00:28.024Z,74.62
2018-03-26T19:02:55.487Z,74.52
2018-03-26T19:05:23.070Z,74.25
2018-03-26T19:07:50.560Z,74.00
2018-03-26T19:10:18.076Z,74.30
2018-03-26T19:12:45.546Z,74.37
2018-03-26T19:15:13.046Z,74.24
2018-03-26T19:20:07.389Z,74.40
2018-03-26T19:22:34.867Z,74.83
2018-03-26T19:25:02.364Z,74.96
2018-03-26T19:27:29.839Z,75.07
2018-03-26T19:29:57.314Z,75.29
2018-03-26T19:32:24.799Z,75.36
2018-03-26T19:34:52.629Z,75.32
2018-03-26T19:37:20.118Z,75.46
2018-03-26T19:39:47.619Z,75.66
2018-03-26T19:42:15.220Z,75.61
2018-03-26T19:44:42.684Z,75.72
2018-03-26T19:47:10.145Z,75.85
2018-03-26T19:49:37.647Z,75.74
2018-03-26T19:52:05.126Z,75.92
2018-03-26T19:54:32.668Z,76.21
2018-03-26T19:57:00.150Z,76.43
2018-03-26T19:59:27.625Z,76.59
2018-03-26T20:01:55.157Z,76.71
2018-03-26T20:04:22.674Z,76.71
2018-03-26T20:06:50.135Z,76.69
2018-03-26T20:09:17.594Z,76.63
2018-03-26T20:11:45.100Z,76.46
2018-03-26T20:14:12.612Z,76.31
2018-03-26T20:16:40.127Z,76.30
2018-03-26T20:19:07.602Z,75.86
2018-03-26T20:21:35.107Z,76.06
2018-03-26T20:24:02.558Z,75.90
2018-03-26T20:26:30.114Z,75.67
2018-03-26T20:28:57.611Z,75.79
2018-03-26T20:31:25.138Z,75.88
2018-03-26T20:33:52.710Z,75.98
2018-03-26T20:36:20.176Z,75.76
2018-03-26T20:38:47.731Z,75.77
2018-03-26T20:41:15.227Z,75.80
2018-03-26T20:43:42.691Z,76.11
2018-03-26T20:46:10.158Z,76.30
2018-03-26T20:48:37.635Z,76.18
2018-03-26T20:51:05.114Z,76.28
2018-03-26T20:53:32.653Z,76.10
2018-03-26T20:56:00.139Z,75.68
2018-03-26T20:58:27.652Z,75.59
2018-03-26T21:00:55.102Z,75.92
2018-03-26T21:03:22.579Z,76.42
2018-03-26T21:05:50.062Z,76.41
2018-03-26T21:08:17.611Z,76.40
2018-03-26T21:10:45.129Z,76.29
2018-03-26T21:13:12.664Z,75.88
2018-03-26T21:15:40.126Z,75.78
2018-03-26T21:18:07.610Z,75.88
2018-03-26T21:20:35.093Z,75.85
2018-03-26T21:23:02.650Z,75.76
2018-03-26T21:25:30.110Z,75.81
2018-03-26T21:27:57.639Z,75.86
2018-03-26T21:30:25.102Z,75.47
2018-03-26T21:32:52.583Z,75.53
2018-03-26T21:35:20.040Z,75.68
2018-03-26T21:37:47.582Z,75.55
2018-03-26T21:40:15.050Z,75.45
2018-03-26T21:42:42.522Z,75.48
2018-03-26T21:45:10.074Z,75.51
2018-03-26T21:47:37.526Z,75.59
2018-03-26T21:50:05.086Z,75.89
2018-03-26T21:52:32.567Z,75.86
2018-03-26T21:55:00.033Z,75.89
2018-03-26T21:57:27.527Z,75.81
2018-03-26T21:59:54.989Z,75.60
2018-03-26T22:02:22.442Z,75.49
2018-03-26T22:04:49.928Z,75.18
2018-03-26T22:07:17.391Z,75.32
2018-03-26T22:09:44.892Z,75.58
2018-03-26T22:12:12.405Z,75.29
2018-03-26T22:14:39.875Z,75.60
2018-03-26T22:17:07.351Z,75.54
2018-03-26T22:19:34.816Z,75.59
2018-03-26T22:22:02.370Z,75.41
2018-03-26T22:24:29.859Z,75.32
2018-03-26T22:26:57.310Z,75.23
2018-03-26T22:29:24.828Z,75.04
2018-03-26T22:31:52.354Z,75.32
2018-03-26T22:34:19.818Z,75.50
2018-03-26T22:36:47.393Z,75.65
2018-03-26T22:39:14.942Z,75.65
2018-03-26T22:41:42.390Z,75.55
2018-03-26T22:44:09.851Z,75.82
2018-03-26T22:46:37.361Z,75.80
2018-03-26T22:49:04.880Z,75.85
2018-03-26T22:51:32.338Z,75.60
2018-03-26T22:53:59.833Z,75.35
2018-03-26T22:56:27.371Z,75.70
2018-03-26T22:58:54.897Z,75.91
2018-03-26T23:01:22.368Z,75.58
2018-03-26T23:03:49.851Z,75.75
2018-03-26T23:06:17.424Z,76.02
2018-03-26T23:08:44.890Z,76.18
2018-03-26T23:11:12.350Z,76.13
2018-03-26T23:13:39.842Z,76.15
2018-03-26T23:16:07.311Z,76.13
2018-03-26T23:18:34.776Z,76.04
2018-03-26T23:21:02.332Z,76.03
2018-03-26T23:23:29.891Z,76.04
2018-03-26T23:25:57.389Z,75.92
2018-03-26T23:28:24.881Z,75.94
2018-03-26T23:30:52.367Z,75.92
2018-03-26T23:33:19.910Z,75.51
2018-03-26T23:35:47.382Z,75.21
2018-03-26T23:38:14.853Z,75.19
2018-03-26T23:40:42.314Z,75.24
2018-03-26T23:43:09.810Z,75.29
2018-03-26T23:45:37.275Z,75.18
2018-03-26T23:48:04.735Z,75.32
2018-03-26T23:50:32.221Z,75.18
2018-03-26T23:52:59.790Z,75.41
2018-03-26T23:55:27.260Z,75.55
2018-03-26T23:57:54.744Z,75.31
